Time,TemperatureF,DewpointF,PressureIn,WindDirection,WindDirectionDegrees,WindSpeedMPH,WindSpeedGustMPH,Humidity,HourlyPrecipIn,Conditions,Clouds,dailyrainin,SoftwareType,DateUTC
2013-01-15 00:00:00,-14.0,-18.0,-100.00,NW,304,10.0,17.0,79,-99.99,,,-99.99,,2013-01-15 07:00:00,
2013-01-15 00:43:00,-14.0,-18.0,-100.00,NW,304,10.0,17.0,79,-99.99,,,-99.99,,2013-01-15 07:43:00,
2013-01-15 00:52:00,-14.0,-18.0,-100.00,NW,304,10.0,17.0,79,-99.99,,,-99.99,,2013-01-15 07:52:00,
2013-01-15 01:00:00,-14.0,-20.0,-100.00,NW,321,12.0,17.0,72,-99.99,,,-99.99,,2013-01-15 08:00:00,
2013-01-15 01:43:00,-14.0,-20.0,-100.00,NW,321,12.0,17.0,72,-99.99,,,-99.99,,2013-01-15 08:43:00,
2013-01-15 01:53:00,-14.0,-20.0,-100.00,NW,321,12.0,17.0,72,-99.99,,,-99.99,,2013-01-15 08:53:00,
2013-01-15 02:00:00,-13.0,-26.0,-100.00,NNW,337,16.0,31.0,52,-99.99,,,-99.99,,2013-01-15 09:00:00,
2013-01-15 02:42:00,-13.0,-26.0,-100.00,NNW,337,16.0,31.0,52,-99.99,,,-99.99,,2013-01-15 09:42:00,
2013-01-15 02:52:00,-13.0,-26.0,-100.00,NNW,337,16.0,31.0,52,-99.99,,,-99.99,,2013-01-15 09:52:00,
2013-01-15 03:00:00,-14.0,-30.0,-100.00,NNW,342,15.0,29.0,44,-99.99,,,-99.99,,2013-01-15 10:00:00,
2013-01-15 03:42:00,-14.0,-30.0,-100.00,NNW,342,15.0,29.0,44,-99.99,,,-99.99,,2013-01-15 10:42:00,
2013-01-15 03:52:00,-14.0,-30.0,-100.00,NNW,342,15.0,29.0,44,-99.99,,,-99.99,,2013-01-15 10:52:00,
2013-01-15 04:00:00,-14.0,-29.0,-100.00,North,350,15.0,40.0,44,-99.99,,,-99.99,,2013-01-15 11:00:00,
2013-01-15 04:43:00,-14.0,-29.0,-100.00,North,350,15.0,40.0,44,-99.99,,,-99.99,,2013-01-15 11:43:00,
2013-01-15 04:53:00,-14.0,-29.0,-100.00,North,350,15.0,40.0,44,-99.99,,,-99.99,,2013-01-15 11:53:00,
2013-01-15 05:00:00,-10.0,-31.0,-100.00,NNW,336,30.0,55.0,34,-99.99,,,-99.99,,2013-01-15 12:00:00,
2013-01-15 05:43:00,-10.0,-31.0,-100.00,NNW,336,30.0,55.0,34,-99.99,,,-99.99,,2013-01-15 12:43:00,
2013-01-15 05:53:00,-10.0,-31.0,-100.00,NNW,336,30.0,55.0,34,-99.99,,,-99.99,,2013-01-15 12:53:00,
2013-01-15 06:00:00,-8.0,-25.0,-100.00,NNW,347,34.0,71.0,43,-99.99,,,-99.99,,2013-01-15 13:00:00,
2013-01-15 06:43:00,-8.0,-25.0,-100.00,NNW,347,34.0,71.0,43,-99.99,,,-99.99,,2013-01-15 13:43:00,
2013-01-15 06:53:00,-8.0,-25.0,-100.00,NNW,347,34.0,71.0,43,-99.99,,,-99.99,,2013-01-15 13:53:00,
2013-01-15 07:00:00,-10.0,-22.0,-100.00,North,358,29.0,75.0,54,-99.99,,,-99.99,,2013-01-15 14:00:00,
2013-01-15 07:43:00,-10.0,-22.0,-100.00,North,358,29.0,75.0,54,-99.99,,,-99.99,,2013-01-15 14:43:00,
2013-01-15 07:53:00,-10.0,-22.0,-100.00,North,358,29.0,75.0,54,-99.99,,,-99.99,,2013-01-15 14:53:00,
2013-01-15 09:00:00,-7.0,-11.0,-100.00,North,3,49.0,75.0,81,-99.99,,,-99.99,,2013-01-15 16:00:00,
2013-01-15 09:43:00,-7.0,-11.0,-100.00,North,3,49.0,75.0,81,-99.99,,,-99.99,,2013-01-15 16:43:00,
2013-01-15 09:53:00,-7.0,-11.0,-100.00,North,3,49.0,75.0,81,-99.99,,,-99.99,,2013-01-15 16:53:00,
2013-01-15 10:00:00,-5.0,-10.0,-100.00,North,2,43.0,66.0,79,-99.99,,,-99.99,,2013-01-15 17:00:00,
2013-01-15 10:43:00,-5.0,-10.0,-100.00,North,2,43.0,66.0,79,-99.99,,,-99.99,,2013-01-15 17:43:00,
2013-01-15 10:53:00,-5.0,-10.0,-100.00,North,2,43.0,66.0,79,-99.99,,,-99.99,,2013-01-15 17:53:00,
2013-01-15 11:00:00,-3.0,-9.0,-100.00,North,356,34.0,62.0,76,-99.99,,,-99.99,,2013-01-15 18:00:00,
2013-01-15 11:43:00,-3.0,-9.0,-100.00,North,356,34.0,62.0,76,-99.99,,,-99.99,,2013-01-15 18:43:00,
2013-01-15 11:53:00,-3.0,-9.0,-100.00,North,356,34.0,62.0,76,-99.99,,,-99.99,,2013-01-15 18:53:00,
2013-01-15 12:00:00,-2.0,-7.0,-100.00,North,0,35.0,63.0,78,-99.99,,,-99.99,,2013-01-15 19:00:00,
2013-01-15 12:43:00,-2.0,-7.0,-100.00,North,0,35.0,63.0,78,-99.99,,,-99.99,,2013-01-15 19:43:00,
2013-01-15 12:53:00,-2.0,-7.0,-100.00,North,0,35.0,63.0,78,-99.99,,,-99.99,,2013-01-15 19:53:00,
2013-01-15 13:00:00,-1.0,-5.0,-100.00,North,352,35.0,61.0,81,-99.99,,,-99.99,,2013-01-15 20:00:00,
2013-01-15 13:43:00,-1.0,-5.0,-100.00,North,352,35.0,61.0,81,-99.99,,,-99.99,,2013-01-15 20:43:00,
2013-01-15 13:53:00,-1.0,-5.0,-100.00,North,352,35.0,61.0,81,-99.99,,,-99.99,,2013-01-15 20:53:00,
2013-01-15 14:00:00,0.0,-4.0,-100.00,North,349,35.0,67.0,84,-99.99,,,-99.99,,2013-01-15 21:00:00,
2013-01-15 14:43:00,0.0,-4.0,-100.00,North,349,35.0,67.0,84,-99.99,,,-99.99,,2013-01-15 21:43:00,
2013-01-15 14:53:00,0.0,-4.0,-100.00,North,349,35.0,67.0,84,-99.99,,,-99.99,,2013-01-15 21:53:00,
2013-01-15 15:00:00,0.0,-3.0,-100.00,North,3,42.0,67.0,86,-99.99,,,-99.99,,2013-01-15 22:00:00,
2013-01-15 15:43:00,0.0,-3.0,-100.00,North,3,42.0,67.0,86,-99.99,,,-99.99,,2013-01-15 22:43:00,
2013-01-15 15:53:00,0.0,-3.0,-100.00,North,3,42.0,67.0,86,-99.99,,,-99.99,,2013-01-15 22:53:00,
2013-01-15 16:00:00,2.0,-2.0,-100.00,North,4,43.0,67.0,85,-99.99,,,-99.99,,2013-01-15 23:00:00,
2013-01-15 16:43:00,2.0,-2.0,-100.00,North,4,43.0,67.0,85,-99.99,,,-99.99,,2013-01-15 23:43:00,
2013-01-15 16:53:00,2.0,-2.0,-100.00,North,4,43.0,67.0,85,-99.99,,,-99.99,,2013-01-15 23:53:00,
2013-01-15 17:00:00,4.0,0.0,-100.00,North,5,56.0,76.0,86,-99.99,,,-99.99,,2013-01-16 00:00:00,
2013-01-15 17:43:00,4.0,0.0,-100.00,North,5,56.0,76.0,86,-99.99,,,-99.99,,2013-01-16 00:43:00,
2013-01-15 17:53:00,4.0,0.0,-100.00,North,5,56.0,76.0,86,-99.99,,,-99.99,,2013-01-16 00:53:00,
2013-01-15 18:00:00,5.0,2.0,-100.00,North,5,47.0,75.0,85,-99.99,,,-99.99,,2013-01-16 01:00:00,
2013-01-15 18:43:00,5.0,2.0,-100.00,North,5,47.0,75.0,85,-99.99,,,-99.99,,2013-01-16 01:43:00,
2013-01-15 18:53:00,5.0,2.0,-100.00,North,5,47.0,75.0,85,-99.99,,,-99.99,,2013-01-16 01:53:00,
2013-01-15 19:00:00,6.0,3.0,-100.00,North,352,41.0,78.0,88,-99.99,,,-99.99,,2013-01-16 02:00:00,
2013-01-15 19:43:00,6.0,3.0,-100.00,North,352,41.0,78.0,88,-99.99,,,-99.99,,2013-01-16 02:43:00,
2013-01-15 19:53:00,6.0,3.0,-100.00,North,352,41.0,78.0,88,-99.99,,,-99.99,,2013-01-16 02:53:00,
2013-01-15 20:00:00,9.0,5.0,-100.00,North,352,40.0,69.0,83,-99.99,,,-99.99,,2013-01-16 03:00:00,
2013-01-15 20:43:00,9.0,5.0,-100.00,North,352,40.0,69.0,83,-99.99,,,-99.99,,2013-01-16 03:43:00,
2013-01-15 20:53:00,9.0,5.0,-100.00,North,352,40.0,69.0,83,-99.99,,,-99.99,,2013-01-16 03:53:00,
2013-01-15 21:00:00,10.0,5.0,-100.00,North,1,42.0,66.0,78,-99.99,,,-99.99,,2013-01-16 04:00:00,
2013-01-15 21:42:00,10.0,5.0,-100.00,North,1,42.0,66.0,78,-99.99,,,-99.99,,2013-01-16 04:42:00,
2013-01-15 21:52:00,10.0,5.0,-100.00,North,1,42.0,66.0,78,-99.99,,,-99.99,,2013-01-16 04:52:00,
2013-01-15 22:00:00,10.0,5.0,-100.00,North,6,39.0,67.0,80,-99.99,,,-99.99,,2013-01-16 05:00:00,
2013-01-15 22:42:00,10.0,5.0,-100.00,North,6,39.0,67.0,80,-99.99,,,-99.99,,2013-01-16 05:42:00,
2013-01-15 22:53:00,10.0,5.0,-100.00,North,6,39.0,67.0,80,-99.99,,,-99.99,,2013-01-16 05:53:00,
2013-01-15 23:00:00,10.0,6.0,-100.00,North,5,31.0,59.0,84,-99.99,,,-99.99,,2013-01-16 06:00:00,
2013-01-15 23:43:00,10.0,6.0,-100.00,North,5,31.0,59.0,84,-99.99,,,-99.99,,2013-01-16 06:43:00,
2013-01-15 23:53:00,10.0,6.0,-100.00,North,5,31.0,59.0,84,-99.99,,,-99.99,,2013-01-16 06:53:00,